Time;durP1;ratioP1;P1;durP2;ratioP2;P2;SDS_P1;SDS_P2;PMS_P1;PMS_P2;Temp;Humidity;BMP_temperature;BMP_pressure;BME280_temperature;BME280_humidity;BME280_pressure;Samples;Min_cycle;Max_cycle;Signal;HPM_P1;HPM_P2
2023/09/11 00:03:08;;;;;;;25.70;18.10;;;;;;;17.32;100.00;100508.58;217925;1288;141381;-89
2023/09/11 00:08:09;;;;;;;21.70;16.70;;;;;;;17.28;100.00;100506.35;218342;1290;139462;-89
2023/09/11 00:13:10;;;;;;;24.20;16.50;;;;;;;17.24;100.00;100508.08;217801;1292;141355;-89
2023/09/11 00:18:11;;;;;;;23.70;15.90;;;;;;;17.18;100.00;100501.56;218400;1289;140040;-89
2023/09/11 00:23:11;;;;;;;22.60;16.90;;;;;;;17.13;100.00;100501.02;217693;1288;141612;-89
2023/09/11 00:28:12;;;;;;;23.80;17.10;;;;;;;17.07;100.00;100498.64;218261;1290;139433;-89
2023/09/11 00:33:12;;;;;;;23.50;17.90;;;;;;;16.99;100.00;100499.77;218061;1288;141235;-89
2023/09/11 00:38:13;;;;;;;26.00;19.60;;;;;;;16.95;100.00;100501.81;218315;1289;140050;-90
2023/09/11 00:43:13;;;;;;;24.90;18.30;;;;;;;16.90;100.00;100500.69;217795;1288;141040;-88
2023/09/11 00:48:14;;;;;;;25.30;19.00;;;;;;;16.85;100.00;100501.15;218237;1290;139653;-88
2023/09/11 00:53:14;;;;;;;26.40;17.40;;;;;;;16.75;100.00;100497.38;217778;1291;142808;-89
2023/09/11 00:58:16;;;;;;;22.60;17.20;;;;;;;16.72;100.00;100499.27;218291;1288;139509;-88
2023/09/11 01:03:17;;;;;;;25.60;18.70;;;;;;;16.68;100.00;100500.98;217875;1288;141178;-88
2023/09/11 01:08:19;;;;;;;26.50;19.10;;;;;;;16.66;100.00;100497.52;218161;1289;139488;-88
2023/09/11 01:13:19;;;;;;;25.80;18.60;;;;;;;16.61;100.00;100492.41;217746;1288;141248;-88
2023/09/11 01:18:29;;;;;;;26.70;19.20;;;;;;;16.58;100.00;100490.30;218379;1288;139655;-88
2023/09/11 01:23:58;;;;;;;28.40;20.00;;;;;;;16.57;100.00;100491.44;217872;1289;141746;-89
2023/09/11 01:29:16;;;;;;;20.80;15.20;;;;;;;16.52;100.00;100487.99;218159;1288;139434;-89
2023/09/11 01:34:17;;;;;;;24.60;18.70;;;;;;;16.47;100.00;100485.12;218053;1289;140618;-89
2023/09/11 01:39:17;;;;;;;24.30;16.80;;;;;;;16.43;100.00;100483.66;218181;1288;142462;-89
2023/09/11 01:44:30;;;;;;;25.80;18.20;;;;;;;16.40;100.00;100477.04;218342;1289;139233;-89
2023/09/11 01:49:32;;;;;;;22.20;17.20;;;;;;;16.38;100.00;100473.63;217651;1288;141970;-89
2023/09/11 01:54:35;;;;;;;26.80;18.50;;;;;;;16.32;100.00;100477.09;218245;1288;139950;-89
2023/09/11 01:59:36;;;;;;;23.30;17.00;;;;;;;16.29;100.00;100471.11;217755;1290;141239;-88
2023/09/11 02:04:36;;;;;;;22.50;16.30;;;;;;;16.25;100.00;100465.67;218471;1288;139489;-89
2023/09/11 02:09:37;;;;;;;22.70;17.10;;;;;;;16.22;100.00;100466.98;217825;1288;142117;-85
2023/09/11 02:14:37;;;;;;;24.10;16.80;;;;;;;16.18;100.00;100471.78;218447;1288;95843;-89
2023/09/11 02:19:38;;;;;;;27.80;17.70;;;;;;;16.12;100.00;100470.41;217766;1290;142097;-88
2023/09/11 02:24:38;;;;;;;25.50;18.70;;;;;;;16.08;100.00;100468.41;218382;1289;139449;-89
2023/09/11 02:29:39;;;;;;;34.60;22.40;;;;;;;16.04;100.00;100468.67;217779;1288;141473;-89
2023/09/11 02:34:39;;;;;;;32.80;21.80;;;;;;;16.03;100.00;100465.98;218332;1288;139912;-89
2023/09/11 02:39:40;;;;;;;29.50;19.50;;;;;;;16.01;100.00;100463.70;217843;1289;142302;-89
2023/09/11 02:44:40;;;;;;;27.00;19.10;;;;;;;16.00;100.00;100458.33;218451;1287;96165;-89
2023/09/11 02:49:40;;;;;;;33.80;19.80;;;;;;;15.96;100.00;100456.63;217869;1288;141886;-89
2023/09/11 02:54:41;;;;;;;23.70;17.80;;;;;;;15.93;100.00;100462.84;218202;1291;139490;-89
2023/09/11 02:59:41;;;;;;;25.80;18.90;;;;;;;15.90;100.00;100458.75;217787;1289;142975;-89
2023/09/11 03:04:42;;;;;;;28.50;20.20;;;;;;;15.88;100.00;100457.03;218383;1288;140413;-89
2023/09/11 03:09:42;;;;;;;26.20;19.20;;;;;;;15.85;100.00;100456.49;217757;1289;143081;-89
2023/09/11 03:14:43;;;;;;;26.60;19.20;;;;;;;15.81;100.00;100455.42;218499;1288;95952;-89
2023/09/11 03:19:44;;;;;;;25.10;17.10;;;;;;;15.77;100.00;100454.21;217756;1288;141377;-89
2023/09/11 03:24:44;;;;;;;27.30;20.10;;;;;;;15.73;100.00;100456.94;218327;1289;139385;-89
2023/09/11 03:29:45;;;;;;;29.50;20.80;;;;;;;15.70;100.00;100451.48;217596;1290;141443;-88
2023/09/11 03:34:45;;;;;;;27.40;20.70;;;;;;;15.66;100.00;100449.23;218314;1289;139393;-88
2023/09/11 03:39:45;;;;;;;27.60;21.10;;;;;;;15.63;100.00;100448.47;217704;1288;142199;-89
2023/09/11 03:44:46;;;;;;;29.80;20.80;;;;;;;15.59;100.00;100446.67;218378;1288;95923;-89
2023/09/11 03:49:46;;;;;;;31.10;20.30;;;;;;;15.55;100.00;100446.09;217781;1288;141754;-89
2023/09/11 03:54:47;;;;;;;32.70;22.60;;;;;;;15.50;100.00;100444.70;218196;1289;139910;-89
2023/09/11 03:59:47;;;;;;;31.90;22.10;;;;;;;15.45;100.00;100442.28;217726;1288;141992;-89
2023/09/11 04:04:48;;;;;;;25.20;18.70;;;;;;;15.42;100.00;100441.13;218515;1288;139537;-89
2023/09/11 04:09:48;;;;;;;29.10;20.60;;;;;;;15.37;100.00;100438.30;217791;1288;141272;-89
2023/09/11 04:14:49;;;;;;;27.50;20.00;;;;;;;15.33;100.00;100440.80;218512;1288;95907;-89
2023/09/11 04:19:49;;;;;;;24.20;17.90;;;;;;;15.30;100.00;100441.51;217778;1289;143041;-89
2023/09/11 04:24:50;;;;;;;27.60;20.40;;;;;;;15.27;100.00;100440.41;218426;1288;139677;-89
2023/09/11 04:29:50;;;;;;;29.50;20.70;;;;;;;15.23;100.00;100442.29;218009;1288;142806;-89
2023/09/11 04:34:51;;;;;;;31.10;22.60;;;;;;;15.19;100.00;100442.15;218386;1288;139440;-89
2023/09/11 04:39:51;;;;;;;28.60;20.20;;;;;;;15.17;100.00;100440.58;217767;1289;141525;-89
2023/09/11 04:44:51;;;;;;;30.70;23.00;;;;;;;15.14;100.00;100440.67;218382;1288;95842;-89
2023/09/11 04:49:52;;;;;;;29.60;22.40;;;;;;;15.12;100.00;100442.90;217791;1288;142435;-89
2023/09/11 04:54:53;;;;;;;34.20;21.80;;;;;;;15.11;100.00;100439.36;218401;1288;140139;-89
2023/09/11 04:59:53;;;;;;;33.90;24.00;;;;;;;15.12;100.00;100441.25;217691;1289;141090;-89
2023/09/11 05:04:54;;;;;;;30.40;22.50;;;;;;;15.14;100.00;100438.70;218352;1289;140111;-89
2023/09/11 05:09:54;;;;;;;33.20;23.10;;;;;;;15.16;100.00;100437.49;217561;1288;142315;-88
2023/09/11 05:14:55;;;;;;;34.00;25.60;;;;;;;15.18;100.00;100436.29;218376;1288;96287;-89
2023/09/11 05:19:55;;;;;;;29.80;20.90;;;;;;;15.22;100.00;100433.27;217839;1288;140490;-89
2023/09/11 05:24:55;;;;;;;40.80;28.10;;;;;;;15.27;100.00;100432.58;218352;1288;140066;-89
2023/09/11 05:29:56;;;;;;;33.60;22.80;;;;;;;15.33;100.00;100434.70;217786;1288;140992;-89
2023/09/11 05:34:56;;;;;;;39.70;27.90;;;;;;;15.39;100.00;100432.91;218207;1289;139587;-89
2023/09/11 05:39:57;;;;;;;38.30;27.80;;;;;;;15.47;100.00;100427.13;217826;1289;142089;-86
2023/09/11 05:44:57;;;;;;;40.30;31.10;;;;;;;15.55;100.00;100428.64;218676;1288;97366;-86
2023/09/11 05:50:00;;;;;;;42.00;30.50;;;;;;;15.63;100.00;100430.47;217849;1291;141717;-84
2023/09/11 05:55:01;;;;;;;46.20;33.00;;;;;;;15.72;100.00;100422.45;218213;1288;139859;-85
2023/09/11 06:00:09;;;;;;;46.60;32.70;;;;;;;15.84;100.00;100426.05;217628;1288;141459;-85
2023/09/11 06:05:10;;;;;;;49.40;36.00;;;;;;;16.00;100.00;100416.27;218068;1288;140035;-85
2023/09/11 06:10:12;;;;;;;54.70;38.20;;;;;;;16.18;100.00;100420.76;217542;1289;142776;-86
2023/09/11 06:15:13;;;;;;;48.00;35.20;;;;;;;16.43;100.00;100418.41;218260;1289;97090;-86
2023/09/11 06:20:15;;;;;;;49.30;36.80;;;;;;;16.70;100.00;100416.63;217605;1289;141447;-86
2023/09/11 06:25:22;;;;;;;45.80;34.10;;;;;;;16.92;100.00;100416.00;218219;1288;140277;-85
2023/09/11 06:30:22;;;;;;;52.30;38.00;;;;;;;17.10;100.00;100417.77;217576;1288;142201;-86
2023/09/11 06:35:23;;;;;;;43.50;34.00;;;;;;;17.26;100.00;100423.48;218368;1288;139692;-86
2023/09/11 06:40:24;;;;;;;48.60;36.70;;;;;;;17.41;100.00;100422.46;217789;1288;143560;-86
2023/09/11 06:45:24;;;;;;;51.30;36.10;;;;;;;17.53;100.00;100425.20;218566;1289;96471;-86
2023/09/11 06:50:24;;;;;;;52.80;38.00;;;;;;;17.71;100.00;100426.95;217804;1288;142452;-86
2023/09/11 06:55:25;;;;;;;54.50;39.90;;;;;;;17.89;100.00;100427.02;218362;1288;139292;-87
2023/09/11 07:00:26;;;;;;;57.80;38.50;;;;;;;18.13;100.00;100431.90;217880;1289;142691;-86
2023/09/11 07:05:27;;;;;;;48.90;36.90;;;;;;;18.31;100.00;100432.97;218230;1289;140614;-86
2023/09/11 07:10:28;;;;;;;49.80;36.70;;;;;;;18.48;100.00;100439.64;217772;1289;141588;-86
2023/09/11 07:15:29;;;;;;;42.40;33.10;;;;;;;18.68;100.00;100444.64;218313;1288;96038;-86
2023/09/11 07:20:30;;;;;;;40.20;30.60;;;;;;;18.85;100.00;100445.52;217706;1288;141249;-86
2023/09/11 07:25:33;;;;;;;39.20;29.90;;;;;;;19.04;100.00;100447.34;218243;1288;139705;-86
2023/09/11 07:30:34;;;;;;;40.60;30.60;;;;;;;19.25;100.00;100447.33;217772;1290;141091;-85
2023/09/11 07:35:34;;;;;;;33.70;26.40;;;;;;;19.54;100.00;100443.66;218261;1290;141142;-86
2023/09/11 07:40:35;;;;;;;24.40;21.00;;;;;;;19.77;100.00;100443.55;217568;1290;142313;-85
2023/09/11 07:45:35;;;;;;;25.30;18.20;;;;;;;19.98;100.00;100437.88;218424;1290;96364;-86
2023/09/11 07:50:36;;;;;;;27.60;18.50;;;;;;;20.18;100.00;100438.23;217901;1289;141292;-86
2023/09/11 07:55:37;;;;;;;38.80;19.40;;;;;;;20.43;100.00;100437.36;218326;1289;139331;-86
2023/09/11 08:00:37;;;;;;;26.70;17.40;;;;;;;20.72;100.00;100436.57;217805;1289;141697;-85
2023/09/11 08:05:38;;;;;;;26.80;17.30;;;;;;;21.06;100.00;100438.52;218376;1289;140476;-86
2023/09/11 08:10:38;;;;;;;26.30;15.70;;;;;;;21.33;100.00;100439.55;217814;1288;141896;-87
2023/09/11 08:15:39;;;;;;;21.00;14.00;;;;;;;21.58;100.00;100438.48;218397;1288;140089;-87
2023/09/11 08:20:49;;;;;;;18.10;13.60;;;;;;;21.82;100.00;100438.16;217948;1288;142005;-86
2023/09/11 08:25:54;;;;;;;24.60;13.30;;;;;;;22.09;100.00;100440.63;218053;1288;140185;-86
2023/09/11 08:30:55;;;;;;;18.60;14.00;;;;;;;22.39;100.00;100437.30;217562;1288;142911;-86
2023/09/11 08:35:56;;;;;;;20.80;13.20;;;;;;;22.73;100.00;100436.84;218144;1288;140078;-86
2023/09/11 08:40:57;;;;;;;14.70;11.10;;;;;;;23.04;100.00;100442.99;217778;1288;142368;-86
2023/09/11 08:45:58;;;;;;;14.70;11.00;;;;;;;23.42;99.76;100445.15;218330;1288;140594;-86
2023/09/11 08:51:06;;;;;;;15.10;10.80;;;;;;;23.88;97.44;100449.08;217831;1288;140934;-87
2023/09/11 08:56:07;;;;;;;14.00;11.00;;;;;;;24.41;93.35;100452.53;218163;1290;139861;-87
2023/09/11 09:01:11;;;;;;;18.90;10.70;;;;;;;25.10;93.66;100451.40;217762;1288;141562;-87
2023/09/11 09:06:15;;;;;;;14.10;10.30;;;;;;;25.88;92.47;100447.58;218068;1288;140363;-87
2023/09/11 09:11:23;;;;;;;17.70;11.60;;;;;;;26.90;88.21;100447.33;217838;1288;143566;-87
2023/09/11 09:16:27;;;;;;;15.20;9.90;;;;;;;27.85;85.43;100447.64;218338;1288;140035;-87
2023/09/11 09:21:31;;;;;;;18.30;10.30;;;;;;;28.85;81.33;100444.42;217919;1288;140821;-87
2023/09/11 09:26:55;;;;;;;12.20;9.10;;;;;;;29.76;77.55;100439.59;218375;1288;139933;-88
2023/09/11 09:32:10;;;;;;;12.30;9.50;;;;;;;30.72;73.03;100430.48;217970;1288;141757;-87
2023/09/11 09:37:18;;;;;;;16.20;9.60;;;;;;;31.63;67.97;100430.04;218245;1288;138627;-88
2023/09/11 09:42:19;;;;;;;12.80;9.70;;;;;;;32.24;66.13;100424.85;217640;1288;140266;-88
2023/09/11 09:47:21;;;;;;;15.50;10.20;;;;;;;32.98;62.43;100418.31;218237;1290;139195;-88
2023/09/11 09:52:25;;;;;;;13.40;9.50;;;;;;;33.70;59.53;100410.02;217694;1291;141155;-89
2023/09/11 09:57:27;;;;;;;13.30;9.70;;;;;;;34.38;58.66;100400.22;218299;1289;99261;-88
2023/09/11 10:02:29;;;;;;;13.70;9.50;;;;;;;34.87;55.97;100393.81;217681;1288;138949;-88
2023/09/11 10:07:42;;;;;;;11.30;8.90;;;;;;;35.16;53.16;100388.63;218221;1290;138607;-89
2023/09/11 10:12:42;;;;;;;11.80;7.30;;;;;;;35.51;50.48;100390.04;217692;1288;139994;-87
2023/09/11 10:17:42;;;;;;;11.20;7.20;;;;;;;35.90;47.16;100382.10;218437;1288;138608;-89
2023/09/11 10:22:43;;;;;;;13.90;8.20;;;;;;;36.17;45.49;100375.83;217867;1288;141368;-89
2023/09/11 10:27:44;;;;;;;10.50;8.00;;;;;;;36.50;44.28;100367.61;218481;1288;139297;-89
2023/09/11 10:32:55;;;;;;;12.10;8.60;;;;;;;36.68;43.24;100364.34;217807;1289;140688;-89
2023/09/11 10:37:58;;;;;;;13.20;9.10;;;;;;;36.75;40.94;100362.39;218152;1288;138168;-86
2023/09/11 10:42:59;;;;;;;12.80;8.40;;;;;;;36.58;38.43;100358.41;217893;1288;140336;-89
2023/09/11 10:48:00;;;;;;;12.20;7.70;;;;;;;36.33;38.44;100352.14;218278;1290;138361;-88
2023/09/11 10:53:02;;;;;;;10.10;7.50;;;;;;;36.44;39.82;100351.05;217618;1288;140107;-88
2023/09/11 10:58:05;;;;;;;10.00;7.40;;;;;;;36.72;39.95;100347.40;218191;1291;201582;-88
2023/09/11 11:03:06;;;;;;;11.00;7.40;;;;;;;36.80;38.39;100341.91;217717;1288;140540;-87
2023/09/11 11:08:08;;;;;;;9.50;6.80;;;;;;;36.46;38.17;100337.77;218409;1288;138415;-88
2023/09/11 11:13:11;;;;;;;11.20;7.60;;;;;;;36.43;38.50;100331.62;217897;1288;142978;-88
2023/09/11 11:18:24;;;;;;;10.20;7.40;;;;;;;36.50;38.32;100327.05;218252;1288;138474;-87
2023/09/11 11:23:26;;;;;;;12.10;7.60;;;;;;;36.65;38.50;100328.89;217817;1288;141159;-87
2023/09/11 11:28:40;;;;;;;10.50;6.40;;;;;;;36.66;37.20;100324.89;218388;1288;139137;-88
2023/09/11 11:33:45;;;;;;;10.00;7.30;;;;;;;36.46;37.07;100324.60;217816;1288;141277;-87
2023/09/11 11:38:46;;;;;;;10.60;7.40;;;;;;;36.26;36.68;100321.14;218357;1288;96760;-87
2023/09/11 11:43:47;;;;;;;10.60;8.00;;;;;;;36.19;35.96;100322.44;217778;1288;140826;-88
2023/09/11 11:48:48;;;;;;;11.00;8.00;;;;;;;36.15;36.03;100325.48;218346;1288;138357;-88
2023/09/11 11:53:48;;;;;;;11.70;8.50;;;;;;;36.13;35.12;100324.09;217734;1288;140492;-88
2023/09/11 11:58:49;;;;;;;11.10;8.30;;;;;;;35.96;35.59;100317.43;218155;1288;138910;-88
2023/09/11 12:03:51;;;;;;;14.20;8.50;;;;;;;35.88;36.10;100317.52;217743;1290;141656;-87
2023/09/11 12:08:52;;;;;;;13.30;8.60;;;;;;;35.56;36.81;100314.91;218318;1289;103117;-88
2023/09/11 12:13:52;;;;;;;13.50;8.10;;;;;;;34.93;36.45;100316.42;217795;1288;140408;-87
2023/09/11 12:18:52;;;;;;;11.60;8.10;;;;;;;34.61;38.07;100308.93;218272;1288;138612;-86
2023/09/11 12:23:55;;;;;;;10.40;7.80;;;;;;;34.40;38.19;100305.39;217755;1293;140502;-88
2023/09/11 12:28:57;;;;;;;14.60;7.80;;;;;;;34.27;38.76;100301.84;218352;1288;138836;-87
2023/09/11 12:33:58;;;;;;;13.30;8.30;;;;;;;33.94;37.65;100300.23;217609;1293;141285;-86
2023/09/11 12:38:58;;;;;;;12.20;7.90;;;;;;;33.69;38.81;100301.26;218306;1292;96585;-87
2023/09/11 12:44:00;;;;;;;12.60;7.90;;;;;;;33.76;39.57;100294.73;217723;1288;140236;-87
2023/09/11 12:49:00;;;;;;;12.90;8.30;;;;;;;33.75;39.82;100297.96;218257;1290;142604;-88
2023/09/11 12:54:02;;;;;;;12.40;8.40;;;;;;;33.73;40.36;100293.66;217878;1288;140335;-87
2023/09/11 12:59:02;;;;;;;11.10;8.30;;;;;;;33.76;40.11;100286.92;218317;1289;138402;-88
2023/09/11 13:04:09;;;;;;;13.10;8.50;;;;;;;33.80;40.84;100284.96;217545;1291;140556;-87
2023/09/11 13:09:10;;;;;;;12.80;8.00;;;;;;;33.81;39.80;100280.28;215862;1292;139503;-86
2023/09/11 13:14:10;;;;;;;11.50;8.20;;;;;;;33.78;39.17;100279.92;216338;1290;139514;-86
2023/09/11 13:19:11;;;;;;;13.90;8.20;;;;;;;33.37;39.79;100277.88;216176;1288;140108;-86
2023/09/11 13:24:12;;;;;;;10.80;7.70;;;;;;;33.15;40.56;100274.78;218051;1288;138703;-85
2023/09/11 13:29:13;;;;;;;11.90;9.20;;;;;;;33.12;42.02;100273.77;217442;1288;139533;-84
2023/09/11 13:34:14;;;;;;;11.40;7.90;;;;;;;33.14;40.76;100275.61;218043;1291;139018;-84
2023/09/11 13:39:17;;;;;;;12.50;8.30;;;;;;;32.96;42.23;100277.05;217628;1292;141776;-86
2023/09/11 13:44:18;;;;;;;15.40;8.50;;;;;;;32.87;43.83;100274.24;218280;1293;138587;-86
2023/09/11 13:49:19;;;;;;;13.10;8.60;;;;;;;32.70;42.60;100275.18;217476;1294;140558;-85
2023/09/11 13:54:20;;;;;;;11.90;7.60;;;;;;;32.57;44.25;100276.44;217917;1293;139082;-86
2023/09/11 13:59:21;;;;;;;10.80;7.80;;;;;;;32.37;41.68;100275.25;217434;1288;139672;-86
2023/09/11 14:04:22;;;;;;;11.20;8.10;;;;;;;32.19;43.84;100271.91;217850;1293;139133;-85
2023/09/11 14:09:22;;;;;;;31.80;9.70;;;;;;;32.04;43.52;100263.02;217875;1289;140617;-85
2023/09/11 14:14:22;;;;;;;12.30;7.90;;;;;;;31.96;46.26;100262.50;218346;1288;139102;-85
2023/09/11 14:19:23;;;;;;;12.80;8.50;;;;;;;31.89;46.73;100263.22;217927;1288;139233;-86
2023/09/11 14:24:23;;;;;;;12.60;8.50;;;;;;;31.78;45.20;100259.23;218377;1288;138491;-85
2023/09/11 14:29:23;;;;;;;10.80;7.90;;;;;;;31.58;46.16;100254.73;217736;1293;141477;-87
2023/09/11 14:34:24;;;;;;;12.00;7.50;;;;;;;31.40;46.13;100248.20;218385;1290;138527;-85
2023/09/11 14:39:25;;;;;;;14.90;8.00;;;;;;;31.09;44.86;100243.55;217669;1288;141853;-85
2023/09/11 14:44:25;;;;;;;10.50;7.80;;;;;;;30.80;44.88;100239.34;218128;1288;138823;-86
2023/09/11 14:49:25;;;;;;;12.50;8.70;;;;;;;30.61;46.24;100239.09;217888;1288;141464;-87
2023/09/11 14:54:26;;;;;;;15.50;8.50;;;;;;;30.37;45.77;100233.02;218357;1291;138338;-84
2023/09/11 14:59:26;;;;;;;10.60;6.60;;;;;;;30.27;44.07;100234.20;217506;1290;140885;-86
2023/09/11 15:04:27;;;;;;;11.60;8.00;;;;;;;30.20;47.42;100234.63;218196;1291;140790;-86
2023/09/11 15:09:27;;;;;;;11.30;7.60;;;;;;;29.96;46.51;100228.86;217953;1289;141679;-86
2023/09/11 15:14:28;;;;;;;12.00;7.80;;;;;;;29.68;46.79;100228.15;218448;1289;138936;-85
2023/09/11 15:19:28;;;;;;;14.20;8.10;;;;;;;29.38;47.00;100220.37;217726;1289;140767;-85
2023/09/11 15:24:29;;;;;;;13.40;7.30;;;;;;;29.18;47.18;100214.61;218144;1294;139063;-85
2023/09/11 15:29:29;;;;;;;11.90;8.10;;;;;;;28.94;47.95;100219.08;217766;1289;140306;-86
2023/09/11 15:34:30;;;;;;;14.30;8.00;;;;;;;28.69;48.18;100214.48;218336;1289;139581;-86
2023/09/11 15:39:30;;;;;;;10.70;8.00;;;;;;;28.44;48.98;100210.35;217765;1289;140773;-85
2023/09/11 15:44:31;;;;;;;12.30;7.90;;;;;;;28.20;48.24;100205.88;218296;1288;138760;-86
2023/09/11 15:49:31;;;;;;;12.00;7.70;;;;;;;28.06;49.57;100204.16;217649;1288;140599;-86
2023/09/11 15:54:33;;;;;;;13.20;8.50;;;;;;;27.97;50.28;100202.91;218251;1288;138493;-86
2023/09/11 15:59:33;;;;;;;13.00;8.40;;;;;;;27.75;49.19;100203.77;217695;1289;140186;-85
2023/09/11 16:04:35;;;;;;;11.10;8.10;;;;;;;27.58;50.47;100205.08;218225;1289;138300;-86
2023/09/11 16:09:36;;;;;;;13.10;8.40;;;;;;;27.49;51.51;100212.48;218025;1289;140631;-86
2023/09/11 16:14:37;;;;;;;12.00;8.50;;;;;;;27.32;52.00;100211.36;218467;1288;138379;-87
2023/09/11 16:19:38;;;;;;;14.10;8.60;;;;;;;27.15;52.34;100209.60;217957;1289;140607;-87
2023/09/11 16:24:38;;;;;;;15.20;8.50;;;;;;;27.01;53.05;100210.23;218103;1289;139484;-87
2023/09/11 16:29:38;;;;;;;11.80;7.80;;;;;;;26.92;54.35;100207.65;217755;1288;139397;-88
2023/09/11 16:34:39;;;;;;;13.70;8.50;;;;;;;26.83;55.77;100210.30;218261;1288;139862;-87
2023/09/11 16:39:40;;;;;;;18.00;10.00;;;;;;;26.65;56.41;100209.34;218057;1288;140851;-87
2023/09/11 16:44:41;;;;;;;13.80;9.50;;;;;;;26.45;57.79;100205.78;218296;1289;138900;-88
2023/09/11 16:49:42;;;;;;;14.80;8.30;;;;;;;26.26;59.09;100200.35;217629;1288;140576;-87
2023/09/11 16:54:42;;;;;;;13.10;8.90;;;;;;;26.06;60.03;100193.61;218222;1288;138492;-87
2023/09/11 16:59:43;;;;;;;13.90;8.70;;;;;;;25.86;61.25;100192.52;217702;1289;141008;-87
2023/09/11 17:04:43;;;;;;;14.10;9.70;;;;;;;25.73;61.41;100192.70;218250;1288;138286;-86
2023/09/11 17:09:44;;;;;;;14.30;9.70;;;;;;;25.56;61.98;100193.47;217679;1290;140545;-87
2023/09/11 17:14:44;;;;;;;16.90;9.90;;;;;;;25.33;63.63;100199.02;218222;1288;139788;-87
2023/09/11 17:19:45;;;;;;;13.80;10.10;;;;;;;25.12;64.73;100204.06;217637;1288;141486;-87
2023/09/11 17:24:46;;;;;;;14.60;10.10;;;;;;;24.91;65.66;100203.46;218177;1291;139197;-86
2023/09/11 17:29:46;;;;;;;19.30;10.10;;;;;;;24.56;67.42;100200.26;217542;1289;140393;-86
2023/09/11 17:34:50;;;;;;;15.30;10.00;;;;;;;24.29;69.06;100195.67;218186;1289;138510;-86
2023/09/11 17:39:51;;;;;;;13.50;8.30;;;;;;;24.07;69.76;100198.41;217639;1288;140623;-86
2023/09/11 17:44:51;;;;;;;15.90;10.00;;;;;;;23.92;70.13;100200.11;218119;1288;138324;-86
2023/09/11 17:49:52;;;;;;;13.90;9.70;;;;;;;23.78;70.92;100198.38;217819;1288;140139;-88
2023/09/11 17:54:52;;;;;;;17.60;11.00;;;;;;;23.53;72.18;100204.13;218159;1288;138508;-88
2023/09/11 17:59:53;;;;;;;15.20;10.30;;;;;;;23.28;73.33;100210.48;217567;1289;141133;-88
2023/09/11 18:04:54;;;;;;;16.70;10.80;;;;;;;23.07;73.69;100213.60;218108;1288;139160;-88
2023/09/11 18:09:54;;;;;;;16.40;10.10;;;;;;;22.87;74.40;100214.23;217836;1288;141109;-89
2023/09/11 18:14:55;;;;;;;14.10;9.30;;;;;;;22.64;75.07;100219.30;218301;1288;139460;-88
2023/09/11 18:19:56;;;;;;;15.10;9.50;;;;;;;22.44;75.44;100221.56;217750;1288;142970;-88
2023/09/11 18:25:00;;;;;;;15.40;11.20;;;;;;;22.32;75.39;100223.71;218249;1288;139754;-88
2023/09/11 18:30:02;;;;;;;14.90;10.40;;;;;;;22.11;76.02;100227.95;217980;1289;142395;-88
2023/09/11 18:35:03;;;;;;;15.40;11.00;;;;;;;22.01;76.31;100228.58;218263;1289;139268;-88
2023/09/11 18:40:04;;;;;;;15.00;10.70;;;;;;;21.85;77.08;100230.33;217853;1290;140885;-88
2023/09/11 18:45:05;;;;;;;17.40;10.00;;;;;;;21.75;77.82;100226.67;218293;1289;95971;-88
2023/09/11 18:50:06;;;;;;;17.60;11.40;;;;;;;21.68;78.88;100232.23;217762;1288;140519;-89
2023/09/11 18:55:07;;;;;;;15.80;10.80;;;;;;;21.54;79.12;100235.38;218244;1288;138693;-89
2023/09/11 19:00:09;;;;;;;18.30;11.80;;;;;;;21.45;79.66;100236.09;217734;1288;140769;-89
2023/09/11 19:05:09;;;;;;;17.40;10.30;;;;;;;21.32;80.25;100232.33;218370;1288;139605;-88
2023/09/11 19:10:11;;;;;;;17.40;11.20;;;;;;;21.18;81.00;100234.43;217666;1288;139849;-89
2023/09/11 19:15:12;;;;;;;17.20;13.10;;;;;;;21.02;81.47;100236.83;218292;1288;95904;-89
2023/09/11 19:20:16;;;;;;;16.20;10.60;;;;;;;20.85;82.09;100236.20;217524;1290;140479;-90
2023/09/11 19:25:22;;;;;;;18.40;12.80;;;;;;;20.78;82.37;100238.91;218013;1293;141474;-90
2023/09/11 19:30:26;;;;;;;;;;;;;;;20.62;83.41;100237.68;217515;1289;141998;-89
2023/09/11 19:35:27;;;;;;;18.60;12.60;;;;;;;20.43;84.41;100242.06;216957;1288;126372;-91
2023/09/11 19:40:27;;;;;;;22.50;12.50;;;;;;;20.29;84.95;100239.56;216334;1288;142124;-89
2023/09/11 19:45:28;;;;;;;18.40;11.70;;;;;;;20.15;84.87;100240.23;216779;1288;96219;-88
2023/09/11 19:50:29;;;;;;;16.90;11.60;;;;;;;20.08;85.09;100240.18;216074;1290;141194;-89
2023/09/11 19:55:30;;;;;;;16.60;11.60;;;;;;;20.03;84.99;100240.25;216862;1291;139022;-88
2023/09/11 20:00:31;;;;;;;16.70;11.80;;;;;;;19.97;85.08;100242.84;216021;1288;143051;-88
2023/09/11 20:05:31;;;;;;;18.60;12.10;;;;;;;19.93;85.37;100241.50;217178;1288;138657;-88
2023/09/11 20:10:32;;;;;;;18.70;11.50;;;;;;;19.88;85.76;100244.30;216333;1288;142916;-89
2023/09/11 20:15:32;;;;;;;19.70;12.80;;;;;;;19.84;86.03;100238.83;217153;1288;96283;-88
2023/09/11 20:20:33;;;;;;;16.90;12.40;;;;;;;19.73;87.03;100240.43;216280;1292;141275;-89
2023/09/11 20:25:33;;;;;;;19.40;12.30;;;;;;;19.57;87.60;100237.16;216933;1289;139402;-89
2023/09/11 20:30:36;;;;;;;22.00;12.80;;;;;;;19.53;87.21;100236.06;216223;1289;140876;-88
2023/09/11 20:35:36;;;;;;;17.60;12.50;;;;;;;19.50;86.94;100237.52;216717;1290;139216;-88
2023/09/11 20:40:37;;;;;;;25.70;13.80;;;;;;;19.46;87.84;100237.73;216134;1288;142503;-88
2023/09/11 20:45:38;;;;;;;22.90;14.70;;;;;;;19.35;88.79;100236.67;216926;1289;96138;-90
2023/09/11 20:50:38;;;;;;;20.40;14.00;;;;;;;19.22;89.14;100233.41;216256;1288;141397;-89
2023/09/11 20:55:38;;;;;;;20.70;12.90;;;;;;;19.13;89.48;100234.86;216837;1290;140358;-90
2023/09/11 21:00:39;;;;;;;15.60;12.00;;;;;;;19.07;89.35;100235.55;217315;1288;141611;-89
2023/09/11 21:05:40;;;;;;;17.50;12.40;;;;;;;19.01;89.90;100233.73;218108;1289;140996;-89
2023/09/11 21:10:40;;;;;;;18.20;12.60;;;;;;;18.94;90.31;100228.98;217644;1288;141058;-89
2023/09/11 21:15:41;;;;;;;18.30;12.10;;;;;;;18.88;90.94;100233.11;218457;1288;96214;-90
2023/09/11 21:20:41;;;;;;;22.30;14.10;;;;;;;18.80;91.00;100236.49;217735;1288;141096;-90
2023/09/11 21:25:42;;;;;;;17.50;12.70;;;;;;;18.73;91.51;100236.67;218186;1290;139439;-89
2023/09/11 21:30:42;;;;;;;21.30;13.00;;;;;;;18.65;92.27;100237.70;217642;1288;141396;-90
2023/09/11 21:35:43;;;;;;;18.10;12.30;;;;;;;18.56;92.39;100239.25;218299;1288;139791;-90
2023/09/11 21:40:46;;;;;;;16.40;11.80;;;;;;;18.50;92.80;100242.61;217766;1288;143376;-89
2023/09/11 21:45:47;;;;;;;18.70;12.10;;;;;;;18.44;92.54;100240.45;218406;1288;110442;-89
2023/09/11 21:50:47;;;;;;;18.30;12.10;;;;;;;18.41;92.64;100240.98;217764;1289;141893;-89
2023/09/11 21:55:48;;;;;;;19.30;12.00;;;;;;;18.35;93.08;100233.88;218319;1289;139357;-89
2023/09/11 22:00:48;;;;;;;16.80;11.60;;;;;;;18.25;93.34;100231.05;217765;1288;143247;-89
2023/09/11 22:05:48;;;;;;;16.10;12.30;;;;;;;18.19;93.91;100230.16;218495;1289;139096;-88
2023/09/11 22:10:49;;;;;;;15.50;10.70;;;;;;;18.12;94.27;100232.57;217875;1289;141714;-89
2023/09/11 22:15:49;;;;;;;16.00;11.30;;;;;;;18.06;93.81;100231.27;218308;1288;96468;-89
2023/09/11 22:20:49;;;;;;;15.00;10.70;;;;;;;18.05;93.02;100227.46;217869;1288;142400;-89